sensor_id;sensor_type;location;lat;lon;timestamp;P1;durP1;ratioP1;P2;durP2;ratioP2
44824;SDS011;30542;47.928;2.138;2023-07-24T00:01:18;4.68;;;2.42;;
44824;SDS011;30542;47.928;2.138;2023-07-24T00:06:18;4.57;;;2.43;;
44824;SDS011;30542;47.928;2.138;2023-07-24T00:11:18;4.53;;;2.45;;
44824;SDS011;30542;47.928;2.138;2023-07-24T00:16:19;5.37;;;3.47;;
44824;SDS011;30542;47.928;2.138;2023-07-24T00:21:20;4.15;;;3.45;;
44824;SDS011;30542;47.928;2.138;2023-07-24T00:26:20;4.07;;;2.87;;
44824;SDS011;30542;47.928;2.138;2023-07-24T00:31:21;5.80;;;3.47;;
44824;SDS011;30542;47.928;2.138;2023-07-24T00:36:21;4.73;;;3.33;;
44824;SDS011;30542;47.928;2.138;2023-07-24T00:41:21;7.03;;;4.27;;
44824;SDS011;30542;47.928;2.138;2023-07-24T00:46:22;8.27;;;3.73;;
44824;SDS011;30542;47.928;2.138;2023-07-24T00:51:23;5.43;;;3.30;;
44824;SDS011;30542;47.928;2.138;2023-07-24T00:56:23;3.93;;;3.20;;
44824;SDS011;30542;47.928;2.138;2023-07-24T01:01:24;3.70;;;3.30;;
44824;SDS011;30542;47.928;2.138;2023-07-24T01:06:25;4.50;;;3.22;;
44824;SDS011;30542;47.928;2.138;2023-07-24T01:11:27;3.77;;;3.43;;
44824;SDS011;30542;47.928;2.138;2023-07-24T01:16:32;3.20;;;2.90;;
44824;SDS011;30542;47.928;2.138;2023-07-24T01:21:44;3.53;;;3.22;;
44824;SDS011;30542;47.928;2.138;2023-07-24T01:27:01;4.43;;;3.55;;
44824;SDS011;30542;47.928;2.138;2023-07-24T01:32:01;3.47;;;3.17;;
44824;SDS011;30542;47.928;2.138;2023-07-24T01:37:01;4.33;;;3.00;;
44824;SDS011;30542;47.928;2.138;2023-07-24T01:42:02;3.55;;;3.08;;
44824;SDS011;30542;47.928;2.138;2023-07-24T01:47:03;4.15;;;3.13;;
44824;SDS011;30542;47.928;2.138;2023-07-24T01:52:04;3.15;;;2.85;;
44824;SDS011;30542;47.928;2.138;2023-07-24T01:57:04;4.30;;;3.17;;
44824;SDS011;30542;47.928;2.138;2023-07-24T02:02:05;3.30;;;3.00;;
44824;SDS011;30542;47.928;2.138;2023-07-24T02:07:05;2.60;;;2.40;;
44824;SDS011;30542;47.928;2.138;2023-07-24T02:12:06;2.72;;;2.53;;
44824;SDS011;30542;47.928;2.138;2023-07-24T02:17:06;3.08;;;2.72;;
44824;SDS011;30542;47.928;2.138;2023-07-24T02:22:07;3.20;;;2.97;;
44824;SDS011;30542;47.928;2.138;2023-07-24T02:27:07;3.13;;;2.80;;
44824;SDS011;30542;47.928;2.138;2023-07-24T02:32:07;3.03;;;2.83;;
44824;SDS011;30542;47.928;2.138;2023-07-24T02:37:08;3.10;;;2.90;;
44824;SDS011;30542;47.928;2.138;2023-07-24T02:42:08;3.40;;;3.10;;
44824;SDS011;30542;47.928;2.138;2023-07-24T02:47:08;3.33;;;2.78;;
44824;SDS011;30542;47.928;2.138;2023-07-24T02:52:09;3.37;;;3.03;;
44824;SDS011;30542;47.928;2.138;2023-07-24T02:57:09;2.85;;;2.65;;
44824;SDS011;30542;47.928;2.138;2023-07-24T03:02:09;2.42;;;2.22;;
44824;SDS011;30542;47.928;2.138;2023-07-24T03:07:10;2.93;;;2.73;;
44824;SDS011;30542;47.928;2.138;2023-07-24T03:12:10;3.50;;;2.87;;
44824;SDS011;30542;47.928;2.138;2023-07-24T03:17:11;2.65;;;2.45;;
44824;SDS011;30542;47.928;2.138;2023-07-24T03:22:11;2.78;;;2.58;;
44824;SDS011;30542;47.928;2.138;2023-07-24T03:27:12;3.00;;;2.70;;
44824;SDS011;30542;47.928;2.138;2023-07-24T03:32:12;2.25;;;2.10;;
44824;SDS011;30542;47.928;2.138;2023-07-24T03:37:14;3.30;;;2.78;;
44824;SDS011;30542;47.928;2.138;2023-07-24T03:42:24;3.27;;;2.97;;
44824;SDS011;30542;47.928;2.138;2023-07-24T03:47:26;3.17;;;2.72;;
44824;SDS011;30542;47.928;2.138;2023-07-24T03:52:26;2.57;;;2.37;;
44824;SDS011;30542;47.928;2.138;2023-07-24T03:57:26;2.57;;;2.37;;
44824;SDS011;30542;47.928;2.138;2023-07-24T04:02:27;3.00;;;2.80;;
44824;SDS011;30542;47.928;2.138;2023-07-24T04:07:27;2.83;;;2.63;;
44824;SDS011;30542;47.928;2.138;2023-07-24T04:12:28;2.53;;;2.33;;
44824;SDS011;30542;47.928;2.138;2023-07-24T04:17:29;2.63;;;2.42;;
44824;SDS011;30542;47.928;2.138;2023-07-24T04:22:29;2.92;;;2.72;;
44824;SDS011;30542;47.928;2.138;2023-07-24T04:27:29;2.40;;;2.20;;
44824;SDS011;30542;47.928;2.138;2023-07-24T04:32:30;2.37;;;2.17;;
44824;SDS011;30542;47.928;2.138;2023-07-24T04:37:30;2.23;;;2.03;;
44824;SDS011;30542;47.928;2.138;2023-07-24T04:42:31;2.58;;;1.92;;
44824;SDS011;30542;47.928;2.138;2023-07-24T04:47:31;1.83;;;1.70;;
44824;SDS011;30542;47.928;2.138;2023-07-24T04:52:31;2.33;;;2.17;;
44824;SDS011;30542;47.928;2.138;2023-07-24T04:57:32;3.13;;;2.37;;
44824;SDS011;30542;47.928;2.138;2023-07-24T05:02:32;2.00;;;1.80;;
44824;SDS011;30542;47.928;2.138;2023-07-24T05:07:32;2.05;;;1.85;;
44824;SDS011;30542;47.928;2.138;2023-07-24T05:12:33;3.00;;;2.33;;
44824;SDS011;30542;47.928;2.138;2023-07-24T05:17:33;2.63;;;2.20;;
44824;SDS011;30542;47.928;2.138;2023-07-24T05:22:33;2.60;;;2.40;;
44824;SDS011;30542;47.928;2.138;2023-07-24T05:27:34;2.42;;;2.22;;
44824;SDS011;30542;47.928;2.138;2023-07-24T05:32:35;2.72;;;2.53;;
44824;SDS011;30542;47.928;2.138;2023-07-24T05:37:35;2.13;;;2.03;;
44824;SDS011;30542;47.928;2.138;2023-07-24T05:42:36;3.25;;;2.85;;
44824;SDS011;30542;47.928;2.138;2023-07-24T05:47:41;2.22;;;2.03;;
44824;SDS011;30542;47.928;2.138;2023-07-24T05:52:41;2.50;;;2.30;;
44824;SDS011;30542;47.928;2.138;2023-07-24T05:57:42;1.90;;;1.80;;
44824;SDS011;30542;47.928;2.138;2023-07-24T06:02:42;2.30;;;2.20;;
44824;SDS011;30542;47.928;2.138;2023-07-24T06:07:42;2.97;;;2.27;;
44824;SDS011;30542;47.928;2.138;2023-07-24T06:12:43;2.00;;;1.90;;
44824;SDS011;30542;47.928;2.138;2023-07-24T06:17:43;2.10;;;2.00;;
44824;SDS011;30542;47.928;2.138;2023-07-24T06:22:43;2.67;;;2.30;;
44824;SDS011;30542;47.928;2.138;2023-07-24T06:27:43;1.80;;;1.43;;
44824;SDS011;30542;47.928;2.138;2023-07-24T06:32:44;1.90;;;1.63;;
44824;SDS011;30542;47.928;2.138;2023-07-24T06:37:44;2.10;;;1.90;;
44824;SDS011;30542;47.928;2.138;2023-07-24T06:42:45;1.88;;;1.70;;
44824;SDS011;30542;47.928;2.138;2023-07-24T06:47:46;1.70;;;1.60;;
44824;SDS011;30542;47.928;2.138;2023-07-24T06:52:46;2.55;;;1.33;;
44824;SDS011;30542;47.928;2.138;2023-07-24T06:57:46;1.80;;;1.70;;
44824;SDS011;30542;47.928;2.138;2023-07-24T07:02:47;1.40;;;1.30;;
44824;SDS011;30542;47.928;2.138;2023-07-24T07:07:47;1.30;;;1.20;;
44824;SDS011;30542;47.928;2.138;2023-07-24T07:12:47;1.38;;;1.00;;
44824;SDS011;30542;47.928;2.138;2023-07-24T07:17:48;2.22;;;1.02;;
44824;SDS011;30542;47.928;2.138;2023-07-24T07:22:48;1.47;;;1.33;;
44824;SDS011;30542;47.928;2.138;2023-07-24T07:27:49;1.48;;;0.85;;
44824;SDS011;30542;47.928;2.138;2023-07-24T07:32:50;1.00;;;0.95;;
44824;SDS011;30542;47.928;2.138;2023-07-24T07:37:50;1.27;;;0.90;;
44824;SDS011;30542;47.928;2.138;2023-07-24T07:42:50;1.30;;;0.90;;
44824;SDS011;30542;47.928;2.138;2023-07-24T07:47:51;1.20;;;0.75;;
44824;SDS011;30542;47.928;2.138;2023-07-24T07:52:53;1.13;;;0.82;;
44824;SDS011;30542;47.928;2.138;2023-07-24T07:57:53;1.23;;;0.70;;
44824;SDS011;30542;47.928;2.138;2023-07-24T08:02:53;1.63;;;0.80;;
44824;SDS011;30542;47.928;2.138;2023-07-24T08:07:54;1.40;;;0.95;;
44824;SDS011;30542;47.928;2.138;2023-07-24T08:12:54;1.10;;;0.80;;
44824;SDS011;30542;47.928;2.138;2023-07-24T08:17:54;0.90;;;0.50;;
44824;SDS011;30542;47.928;2.138;2023-07-24T08:22:54;1.33;;;0.85;;
44824;SDS011;30542;47.928;2.138;2023-07-24T08:27:55;1.23;;;0.60;;
44824;SDS011;30542;47.928;2.138;2023-07-24T08:32:55;0.77;;;0.73;;
44824;SDS011;30542;47.928;2.138;2023-07-24T08:37:56;1.10;;;0.57;;
44824;SDS011;30542;47.928;2.138;2023-07-24T08:42:57;1.80;;;1.00;;
44824;SDS011;30542;47.928;2.138;2023-07-24T08:47:57;1.20;;;0.80;;
44824;SDS011;30542;47.928;2.138;2023-07-24T08:52:59;1.10;;;0.70;;
44824;SDS011;30542;47.928;2.138;2023-07-24T08:58:00;1.70;;;0.70;;
44824;SDS011;30542;47.928;2.138;2023-07-24T09:03:01;1.23;;;0.90;;
44824;SDS011;30542;47.928;2.138;2023-07-24T09:08:01;1.67;;;0.70;;
44824;SDS011;30542;47.928;2.138;2023-07-24T09:13:01;1.07;;;0.67;;
44824;SDS011;30542;47.928;2.138;2023-07-24T09:18:04;1.42;;;0.73;;
44824;SDS011;30542;47.928;2.138;2023-07-24T09:23:04;1.07;;;0.80;;
44824;SDS011;30542;47.928;2.138;2023-07-24T09:28:14;0.85;;;0.50;;
44824;SDS011;30542;47.928;2.138;2023-07-24T09:33:17;1.98;;;0.77;;
44824;SDS011;30542;47.928;2.138;2023-07-24T09:38:18;0.90;;;0.70;;
44824;SDS011;30542;47.928;2.138;2023-07-24T09:43:22;2.47;;;0.93;;
44824;SDS011;30542;47.928;2.138;2023-07-24T09:48:27;3.65;;;0.88;;
44824;SDS011;30542;47.928;2.138;2023-07-24T09:53:36;1.88;;;0.60;;
44824;SDS011;30542;47.928;2.138;2023-07-24T09:58:43;3.22;;;1.05;;
44824;SDS011;30542;47.928;2.138;2023-07-24T10:03:47;2.97;;;1.10;;
44824;SDS011;30542;47.928;2.138;2023-07-24T10:08:49;2.85;;;0.93;;
44824;SDS011;30542;47.928;2.138;2023-07-24T10:13:49;4.03;;;0.85;;
44824;SDS011;30542;47.928;2.138;2023-07-24T10:18:50;2.03;;;1.15;;
44824;SDS011;30542;47.928;2.138;2023-07-24T10:23:51;2.43;;;0.70;;
44824;SDS011;30542;47.928;2.138;2023-07-24T10:28:51;1.70;;;0.80;;
44824;SDS011;30542;47.928;2.138;2023-07-24T10:33:52;1.43;;;0.70;;
44824;SDS011;30542;47.928;2.138;2023-07-24T10:38:55;2.25;;;0.90;;
44824;SDS011;30542;47.928;2.138;2023-07-24T10:43:58;2.22;;;1.10;;
44824;SDS011;30542;47.928;2.138;2023-07-24T10:49:00;1.25;;;0.77;;
44824;SDS011;30542;47.928;2.138;2023-07-24T10:54:02;2.85;;;0.77;;
44824;SDS011;30542;47.928;2.138;2023-07-24T10:59:03;1.73;;;0.82;;
44824;SDS011;30542;47.928;2.138;2023-07-24T11:04:04;2.05;;;0.60;;
44824;SDS011;30542;47.928;2.138;2023-07-24T11:09:05;1.05;;;0.50;;
44824;SDS011;30542;47.928;2.138;2023-07-24T11:14:05;2.00;;;0.70;;
44824;SDS011;30542;47.928;2.138;2023-07-24T11:19:13;2.10;;;0.65;;
44824;SDS011;30542;47.928;2.138;2023-07-24T11:24:22;7.63;;;1.15;;
44824;SDS011;30542;47.928;2.138;2023-07-24T11:29:23;9.40;;;1.20;;
44824;SDS011;30542;47.928;2.138;2023-07-24T11:34:23;3.80;;;0.80;;
44824;SDS011;30542;47.928;2.138;2023-07-24T11:39:24;4.63;;;0.70;;
44824;SDS011;30542;47.928;2.138;2023-07-24T11:44:26;4.55;;;0.65;;
44824;SDS011;30542;47.928;2.138;2023-07-24T11:49:28;2.30;;;0.77;;
44824;SDS011;30542;47.928;2.138;2023-07-24T11:54:33;1.25;;;0.60;;
44824;SDS011;30542;47.928;2.138;2023-07-24T11:59:37;1.65;;;0.85;;
44824;SDS011;30542;47.928;2.138;2023-07-24T12:04:39;2.47;;;0.63;;
44824;SDS011;30542;47.928;2.138;2023-07-24T12:09:39;2.40;;;0.60;;
44824;SDS011;30542;47.928;2.138;2023-07-24T12:14:40;2.23;;;0.80;;
44824;SDS011;30542;47.928;2.138;2023-07-24T12:19:40;1.50;;;0.60;;
44824;SDS011;30542;47.928;2.138;2023-07-24T12:24:40;1.77;;;0.63;;
44824;SDS011;30542;47.928;2.138;2023-07-24T12:29:41;1.07;;;0.50;;
44824;SDS011;30542;47.928;2.138;2023-07-24T12:34:41;1.97;;;0.90;;
44824;SDS011;30542;47.928;2.138;2023-07-24T12:39:41;3.30;;;0.50;;
44824;SDS011;30542;47.928;2.138;2023-07-24T12:44:43;1.38;;;0.60;;
44824;SDS011;30542;47.928;2.138;2023-07-24T12:49:44;1.17;;;0.50;;
44824;SDS011;30542;47.928;2.138;2023-07-24T12:54:45;1.83;;;0.70;;
44824;SDS011;30542;47.928;2.138;2023-07-24T12:59:45;2.10;;;0.50;;
44824;SDS011;30542;47.928;2.138;2023-07-24T13:04:46;1.40;;;0.80;;
44824;SDS011;30542;47.928;2.138;2023-07-24T13:09:46;1.77;;;0.60;;
44824;SDS011;30542;47.928;2.138;2023-07-24T13:14:46;0.90;;;0.60;;
44824;SDS011;30542;47.928;2.138;2023-07-24T13:19:47;2.60;;;0.90;;
44824;SDS011;30542;47.928;2.138;2023-07-24T13:24:47;1.47;;;0.80;;
44824;SDS011;30542;47.928;2.138;2023-07-24T13:29:47;1.20;;;0.77;;
44824;SDS011;30542;47.928;2.138;2023-07-24T13:34:47;4.32;;;0.70;;
44824;SDS011;30542;47.928;2.138;2023-07-24T13:39:48;2.00;;;0.77;;
44824;SDS011;30542;47.928;2.138;2023-07-24T13:44:48;1.90;;;0.50;;
44824;SDS011;30542;47.928;2.138;2023-07-24T13:49:48;2.30;;;0.90;;
44824;SDS011;30542;47.928;2.138;2023-07-24T13:54:49;1.10;;;0.68;;
44824;SDS011;30542;47.928;2.138;2023-07-24T13:59:49;0.97;;;0.63;;
44824;SDS011;30542;47.928;2.138;2023-07-24T14:04:50;1.63;;;0.73;;
44824;SDS011;30542;47.928;2.138;2023-07-24T14:09:50;2.57;;;0.70;;
44824;SDS011;30542;47.928;2.138;2023-07-24T14:14:50;2.03;;;0.65;;
44824;SDS011;30542;47.928;2.138;2023-07-24T14:19:51;2.35;;;0.70;;
44824;SDS011;30542;47.928;2.138;2023-07-24T14:24:51;1.77;;;0.70;;
44824;SDS011;30542;47.928;2.138;2023-07-24T14:29:51;1.42;;;0.45;;
44824;SDS011;30542;47.928;2.138;2023-07-24T14:34:52;4.73;;;0.70;;
44824;SDS011;30542;47.928;2.138;2023-07-24T14:39:53;3.20;;;0.65;;
44824;SDS011;30542;47.928;2.138;2023-07-24T14:44:53;2.28;;;0.75;;
44824;SDS011;30542;47.928;2.138;2023-07-24T14:49:53;3.43;;;0.50;;
44824;SDS011;30542;47.928;2.138;2023-07-24T14:54:53;1.27;;;0.43;;
44824;SDS011;30542;47.928;2.138;2023-07-24T14:59:54;3.42;;;0.35;;
44824;SDS011;30542;47.928;2.138;2023-07-24T15:04:54;3.75;;;0.40;;
44824;SDS011;30542;47.928;2.138;2023-07-24T15:09:54;1.53;;;0.40;;
44824;SDS011;30542;47.928;2.138;2023-07-24T15:14:55;3.07;;;0.40;;
44824;SDS011;30542;47.928;2.138;2023-07-24T15:19:55;2.85;;;0.73;;
44824;SDS011;30542;47.928;2.138;2023-07-24T15:24:55;5.30;;;0.97;;
44824;SDS011;30542;47.928;2.138;2023-07-24T15:29:56;7.10;;;1.57;;
44824;SDS011;30542;47.928;2.138;2023-07-24T15:34:56;4.30;;;0.80;;
44824;SDS011;30542;47.928;2.138;2023-07-24T15:39:57;5.20;;;0.80;;
44824;SDS011;30542;47.928;2.138;2023-07-24T15:44:58;3.80;;;0.45;;
44824;SDS011;30542;47.928;2.138;2023-07-24T15:49:59;2.33;;;0.50;;
44824;SDS011;30542;47.928;2.138;2023-07-24T15:55:01;2.75;;;0.47;;
44824;SDS011;30542;47.928;2.138;2023-07-24T16:00:01;1.50;;;0.50;;
44824;SDS011;30542;47.928;2.138;2023-07-24T16:05:05;0.93;;;0.32;;
44824;SDS011;30542;47.928;2.138;2023-07-24T16:10:15;2.25;;;0.30;;
44824;SDS011;30542;47.928;2.138;2023-07-24T16:15:18;1.85;;;0.40;;
44824;SDS011;30542;47.928;2.138;2023-07-24T16:20:19;7.37;;;0.47;;
44824;SDS011;30542;47.928;2.138;2023-07-24T16:25:21;1.05;;;0.30;;
44824;SDS011;30542;47.928;2.138;2023-07-24T16:30:21;2.10;;;0.40;;
44824;SDS011;30542;47.928;2.138;2023-07-24T16:35:21;3.23;;;0.40;;
44824;SDS011;30542;47.928;2.138;2023-07-24T16:40:22;1.97;;;0.40;;
44824;SDS011;30542;47.928;2.138;2023-07-24T16:45:22;4.53;;;0.57;;
44824;SDS011;30542;47.928;2.138;2023-07-24T16:50:22;3.83;;;0.40;;
44824;SDS011;30542;47.928;2.138;2023-07-24T16:55:23;3.83;;;0.30;;
44824;SDS011;30542;47.928;2.138;2023-07-24T17:00:23;2.00;;;0.30;;
44824;SDS011;30542;47.928;2.138;2023-07-24T17:05:23;2.28;;;0.47;;
44824;SDS011;30542;47.928;2.138;2023-07-24T17:10:24;1.57;;;0.40;;
44824;SDS011;30542;47.928;2.138;2023-07-24T17:15:24;3.63;;;0.70;;
44824;SDS011;30542;47.928;2.138;2023-07-24T17:20:25;1.05;;;0.40;;
44824;SDS011;30542;47.928;2.138;2023-07-24T17:25:25;2.45;;;0.50;;
44824;SDS011;30542;47.928;2.138;2023-07-24T17:30:25;3.73;;;0.57;;
44824;SDS011;30542;47.928;2.138;2023-07-24T17:35:26;2.67;;;0.50;;
44824;SDS011;30542;47.928;2.138;2023-07-24T17:40:26;3.03;;;0.50;;
44824;SDS011;30542;47.928;2.138;2023-07-24T17:45:26;3.23;;;0.53;;
44824;SDS011;30542;47.928;2.138;2023-07-24T17:50:27;2.97;;;0.60;;
44824;SDS011;30542;47.928;2.138;2023-07-24T17:55:28;7.32;;;1.00;;
44824;SDS011;30542;47.928;2.138;2023-07-24T18:00:28;6.53;;;0.90;;
44824;SDS011;30542;47.928;2.138;2023-07-24T18:05:29;8.52;;;0.95;;
44824;SDS011;30542;47.928;2.138;2023-07-24T18:10:29;2.50;;;0.40;;
44824;SDS011;30542;47.928;2.138;2023-07-24T18:15:30;2.45;;;0.50;;
44824;SDS011;30542;47.928;2.138;2023-07-24T18:20:31;8.13;;;0.83;;
44824;SDS011;30542;47.928;2.138;2023-07-24T18:25:31;4.67;;;0.67;;
44824;SDS011;30542;47.928;2.138;2023-07-24T18:30:31;5.72;;;1.02;;
44824;SDS011;30542;47.928;2.138;2023-07-24T18:35:32;3.37;;;0.50;;
44824;SDS011;30542;47.928;2.138;2023-07-24T18:40:32;1.73;;;0.57;;
44824;SDS011;30542;47.928;2.138;2023-07-24T18:45:32;5.30;;;0.80;;
44824;SDS011;30542;47.928;2.138;2023-07-24T18:50:33;4.70;;;0.60;;
44824;SDS011;30542;47.928;2.138;2023-07-24T18:55:33;3.77;;;0.97;;
44824;SDS011;30542;47.928;2.138;2023-07-24T19:00:33;3.50;;;0.43;;
44824;SDS011;30542;47.928;2.138;2023-07-24T19:05:34;3.03;;;0.60;;
44824;SDS011;30542;47.928;2.138;2023-07-24T19:10:34;4.27;;;0.70;;
44824;SDS011;30542;47.928;2.138;2023-07-24T19:15:35;3.67;;;0.60;;
44824;SDS011;30542;47.928;2.138;2023-07-24T19:20:35;2.37;;;0.47;;
44824;SDS011;30542;47.928;2.138;2023-07-24T19:25:35;3.23;;;0.70;;
44824;SDS011;30542;47.928;2.138;2023-07-24T19:30:36;1.77;;;0.40;;
44824;SDS011;30542;47.928;2.138;2023-07-24T19:35:36;2.90;;;0.90;;
44824;SDS011;30542;47.928;2.138;2023-07-24T19:40:37;3.25;;;0.65;;
44824;SDS011;30542;47.928;2.138;2023-07-24T19:45:38;3.13;;;0.57;;
44824;SDS011;30542;47.928;2.138;2023-07-24T19:50:45;1.92;;;0.43;;
44824;SDS011;30542;47.928;2.138;2023-07-24T19:55:47;5.63;;;0.60;;
44824;SDS011;30542;47.928;2.138;2023-07-24T20:00:48;2.00;;;0.40;;
44824;SDS011;30542;47.928;2.138;2023-07-24T20:05:55;1.95;;;0.38;;
44824;SDS011;30542;47.928;2.138;2023-07-24T20:11:00;1.85;;;0.40;;
44824;SDS011;30542;47.928;2.138;2023-07-24T20:16:03;3.10;;;0.60;;
44824;SDS011;30542;47.928;2.138;2023-07-24T20:21:03;3.15;;;0.52;;
44824;SDS011;30542;47.928;2.138;2023-07-24T20:26:04;1.30;;;0.47;;
44824;SDS011;30542;47.928;2.138;2023-07-24T20:31:04;0.60;;;0.20;;
44824;SDS011;30542;47.928;2.138;2023-07-24T20:36:08;1.65;;;0.22;;
44824;SDS011;30542;47.928;2.138;2023-07-24T20:41:09;0.85;;;0.30;;
44824;SDS011;30542;47.928;2.138;2023-07-24T20:46:12;1.92;;;0.30;;
44824;SDS011;30542;47.928;2.138;2023-07-24T20:51:14;1.85;;;0.43;;
44824;SDS011;30542;47.928;2.138;2023-07-24T20:56:15;1.05;;;0.30;;
44824;SDS011;30542;47.928;2.138;2023-07-24T21:01:17;1.58;;;0.30;;
44824;SDS011;30542;47.928;2.138;2023-07-24T21:06:17;1.13;;;0.30;;
44824;SDS011;30542;47.928;2.138;2023-07-24T21:11:17;1.08;;;0.47;;
44824;SDS011;30542;47.928;2.138;2023-07-24T21:16:18;1.15;;;0.30;;
44824;SDS011;30542;47.928;2.138;2023-07-24T21:21:18;0.77;;;0.23;;
44824;SDS011;30542;47.928;2.138;2023-07-24T21:26:18;0.83;;;0.30;;
44824;SDS011;30542;47.928;2.138;2023-07-24T21:31:19;0.63;;;0.30;;
44824;SDS011;30542;47.928;2.138;2023-07-24T21:36:19;1.47;;;0.30;;
44824;SDS011;30542;47.928;2.138;2023-07-24T21:41:19;1.30;;;0.20;;
44824;SDS011;30542;47.928;2.138;2023-07-24T21:46:20;0.97;;;0.40;;
44824;SDS011;30542;47.928;2.138;2023-07-24T21:51:23;1.15;;;0.32;;
44824;SDS011;30542;47.928;2.138;2023-07-24T21:56:23;1.45;;;0.35;;
44824;SDS011;30542;47.928;2.138;2023-07-24T22:01:23;1.27;;;0.40;;
44824;SDS011;30542;47.928;2.138;2023-07-24T22:06:24;0.80;;;0.30;;
44824;SDS011;30542;47.928;2.138;2023-07-24T22:11:24;0.40;;;0.20;;
44824;SDS011;30542;47.928;2.138;2023-07-24T22:16:24;1.10;;;0.20;;
44824;SDS011;30542;47.928;2.138;2023-07-24T22:21:25;1.73;;;0.60;;
44824;SDS011;30542;47.928;2.138;2023-07-24T22:26:25;1.13;;;0.30;;
44824;SDS011;30542;47.928;2.138;2023-07-24T22:31:26;0.73;;;0.20;;
44824;SDS011;30542;47.928;2.138;2023-07-24T22:36:26;1.53;;;0.20;;
44824;SDS011;30542;47.928;2.138;2023-07-24T22:41:26;0.33;;;0.23;;
44824;SDS011;30542;47.928;2.138;2023-07-24T22:46:27;0.50;;;0.20;;
44824;SDS011;30542;47.928;2.138;2023-07-24T22:51:27;1.27;;;0.20;;
44824;SDS011;30542;47.928;2.138;2023-07-24T22:56:27;1.00;;;0.40;;
44824;SDS011;30542;47.928;2.138;2023-07-24T23:01:28;2.70;;;0.40;;
44824;SDS011;30542;47.928;2.138;2023-07-24T23:06:29;0.50;;;0.20;;
44824;SDS011;30542;47.928;2.138;2023-07-24T23:11:30;1.83;;;0.30;;
44824;SDS011;30542;47.928;2.138;2023-07-24T23:16:32;1.13;;;0.38;;
44824;SDS011;30542;47.928;2.138;2023-07-24T23:21:32;0.25;;;0.17;;
44824;SDS011;30542;47.928;2.138;2023-07-24T23:26:32;0.30;;;0.20;;
44824;SDS011;30542;47.928;2.138;2023-07-24T23:31:33;0.47;;;0.20;;
44824;SDS011;30542;47.928;2.138;2023-07-24T23:36:33;1.63;;;0.20;;
44824;SDS011;30542;47.928;2.138;2023-07-24T23:41:34;1.23;;;0.20;;
44824;SDS011;30542;47.928;2.138;2023-07-24T23:46:34;1.42;;;0.30;;
44824;SDS011;30542;47.928;2.138;2023-07-24T23:51:35;1.27;;;0.20;;
44824;SDS011;30542;47.928;2.138;2023-07-24T23:56:35;0.68;;;0.30;;
